Time;durP1;ratioP1;P1;durP2;ratioP2;P2;SDS_P1;SDS_P2;PMS_P1;PMS_P2;Temp;Humidity;BMP_temperature;BMP_pressure;BME280_temperature;BME280_humidity;BME280_pressure;Samples;Min_cycle;Max_cycle;Signal;HPM_P1;HPM_P2
2021/08/11 00:00:43;;;;;;;6.72;4.07;;;;;;;14.19;100.00;100933.19;4987524;28;20153;-83
2021/08/11 00:03:10;;;;;;;4.55;3.28;;;;;;;14.19;100.00;100945.63;5011832;28;20069;-83
2021/08/11 00:05:41;;;;;;;4.63;3.72;;;;;;;14.15;100.00;100946.66;4978671;28;20137;-82
2021/08/11 00:08:07;;;;;;;3.50;2.80;;;;;;;14.14;100.00;100942.25;4992432;28;20105;-85
2021/08/11 00:10:37;;;;;;;4.38;3.22;;;;;;;14.14;100.00;100939.59;4982987;28;20434;-83
2021/08/11 00:13:03;;;;;;;3.97;3.00;;;;;;;14.11;100.00;100940.53;4996471;28;20438;-83
2021/08/11 00:15:31;;;;;;;4.05;3.03;;;;;;;14.09;100.00;100937.94;4969358;28;20056;-82
2021/08/11 00:17:58;;;;;;;4.82;3.38;;;;;;;14.11;100.00;100940.53;5011740;28;20152;-85
2021/08/11 00:20:25;;;;;;;5.15;3.40;;;;;;;14.08;100.00;100946.81;4991300;28;20053;-83
2021/08/11 00:22:55;;;;;;;5.15;3.45;;;;;;;14.03;100.00;100947.88;4973990;28;20052;-83
2021/08/11 00:25:24;;;;;;;4.47;2.83;;;;;;;14.03;100.00;100939.91;4991489;28;20049;-83
2021/08/11 00:27:52;;;;;;;4.22;3.00;;;;;;;13.89;100.00;100950.09;4973296;28;20411;-82
2021/08/11 00:30:19;;;;;;;4.45;3.17;;;;;;;13.89;100.00;100950.97;4980011;28;20037;-84
2021/08/11 00:32:45;;;;;;;4.57;2.95;;;;;;;13.82;100.00;100956.50;4979034;28;20100;-82
2021/08/11 00:35:13;;;;;;;5.18;3.38;;;;;;;13.86;100.00;100952.81;4978996;28;20044;-83
2021/08/11 00:37:40;;;;;;;4.60;3.28;;;;;;;13.78;100.00;100956.56;4977703;28;20049;-84
2021/08/11 00:40:10;;;;;;;5.18;2.90;;;;;;;13.71;100.00;100959.47;4994071;28;20045;-85
2021/08/11 00:42:37;;;;;;;4.15;2.90;;;;;;;13.61;100.00;100957.97;4978867;28;20037;-84
2021/08/11 00:45:04;;;;;;;4.18;3.40;;;;;;;13.63;100.00;100953.50;4979233;28;20073;-84
2021/08/11 00:47:36;;;;;;;4.95;2.88;;;;;;;13.59;100.00;100957.13;4977397;28;20499;-84
2021/08/11 00:50:07;;;;;;;3.90;2.72;;;;;;;13.52;100.00;100959.09;4979171;28;20041;-85
2021/08/11 00:52:33;;;;;;;4.43;3.05;;;;;;;13.52;100.00;100959.09;4978546;28;20042;-84
2021/08/11 00:55:01;;;;;;;4.38;3.33;;;;;;;13.42;100.00;100958.47;5010277;28;20045;-83
2021/08/11 00:57:27;;;;;;;4.50;2.88;;;;;;;13.32;100.00;100957.00;4980717;28;20387;-85
2021/08/11 00:59:56;;;;;;;4.15;2.88;;;;;;;13.34;100.00;100963.13;5037539;23;20058;-78
2021/08/11 01:02:23;;;;;;;4.30;2.90;;;;;;;13.30;100.00;100966.78;4931017;28;20042;-79
2021/08/11 01:04:55;;;;;;;4.65;3.10;;;;;;;13.28;100.00;100967.72;4948701;28;20492;-80
2021/08/11 01:07:23;;;;;;;3.25;2.70;;;;;;;13.24;100.00;100969.59;4967126;28;20055;-80
2021/08/11 01:09:50;;;;;;;4.93;2.75;;;;;;;13.22;100.00;100963.47;4949541;28;20047;-80
2021/08/11 01:12:17;;;;;;;4.05;3.00;;;;;;;13.21;100.00;100959.06;4950645;28;20452;-81
2021/08/11 01:14:44;;;;;;;3.25;2.70;;;;;;;13.21;100.00;100956.41;4952922;28;20054;-81
2021/08/11 01:17:11;;;;;;;4.70;3.90;;;;;;;13.25;100.00;100960.72;4968886;28;20098;-80
2021/08/11 01:19:38;;;;;;;4.60;3.08;;;;;;;13.25;100.00;100963.38;4964577;28;20039;-80
2021/08/11 01:22:41;;;;;;;4.60;3.28;;;;;;;13.17;100.00;100967.97;4935363;28;20039;-80
2021/08/11 01:25:30;;;;;;;4.35;3.53;;;;;;;13.16;100.00;100966.22;4949418;28;20054;-80
2021/08/11 01:28:37;;;;;;;4.97;3.00;;;;;;;13.08;100.00;100974.38;4971502;28;20065;-79
2021/08/11 01:31:11;;;;;;;2.95;2.60;;;;;;;13.04;100.00;100988.66;4955276;28;20106;-80
2021/08/11 01:34:12;;;;;;;3.33;2.85;;;;;;;13.00;100.00;100983.44;4970127;28;20034;-81
2021/08/11 01:36:52;;;;;;;3.28;2.35;;;;;;;12.97;100.00;100984.41;4965582;28;20050;-82
2021/08/11 01:39:27;;;;;;;5.53;3.20;;;;;;;12.92;100.00;100981.84;4956091;28;20113;-81
2021/08/11 01:41:59;;;;;;;3.92;3.15;;;;;;;12.91;100.00;100971.28;4955792;28;20105;-81
2021/08/11 01:44:28;;;;;;;3.53;2.90;;;;;;;12.86;100.00;100978.47;4955053;28;20043;-80
2021/08/11 01:46:55;;;;;;;3.30;2.67;;;;;;;12.81;100.00;100983.03;4956592;28;20074;-82
2021/08/11 01:49:23;;;;;;;4.97;3.13;;;;;;;12.83;100.00;100991.81;4943239;28;20054;-82
2021/08/11 01:51:50;;;;;;;4.40;2.95;;;;;;;12.73;100.00;100985.88;4977395;28;20238;-82
2021/08/11 01:54:17;;;;;;;5.85;3.17;;;;;;;12.69;100.00;100989.50;4969813;28;20047;-82
2021/08/11 01:56:45;;;;;;;3.47;2.83;;;;;;;12.67;100.00;100986.03;4941360;28;20047;-78
2021/08/11 01:59:13;;;;;;;4.15;2.97;;;;;;;12.67;100.00;100986.03;4939255;28;20105;-79
2021/08/11 02:01:40;;;;;;;6.28;3.63;;;;;;;12.70;100.00;100990.41;4977008;28;20042;-81
2021/08/11 02:04:08;;;;;;;3.85;3.00;;;;;;;12.62;100.00;100994.09;4988470;28;20047;-79
2021/08/11 02:06:35;;;;;;;4.53;2.92;;;;;;;12.61;100.00;100999.41;4941326;28;20043;-81
2021/08/11 02:09:03;;;;;;;3.33;3.00;;;;;;;12.61;100.00;100997.66;4940588;28;20211;-81
2021/08/11 02:11:30;;;;;;;4.68;2.90;;;;;;;12.61;100.00;100989.72;4970021;28;20114;-82
2021/08/11 02:13:57;;;;;;;4.78;2.95;;;;;;;12.62;100.00;100985.28;4940576;28;20090;-80
2021/08/11 02:16:24;;;;;;;4.30;3.60;;;;;;;12.65;100.00;100993.16;4939842;28;20035;-82
2021/08/11 02:18:51;;;;;;;4.50;3.63;;;;;;;12.65;100.00;100990.50;4972499;28;20047;-81
2021/08/11 02:21:17;;;;;;;5.47;3.80;;;;;;;12.66;100.00;100985.16;4987398;28;20042;-81
2021/08/11 02:23:44;;;;;;;4.90;3.85;;;;;;;12.71;100.00;100987.72;4941314;28;20051;-82
2021/08/11 02:26:20;;;;;;;7.65;5.85;;;;;;;12.71;100.00;100987.72;4970845;28;20039;-79
2021/08/11 02:29:05;;;;;;;5.85;4.28;;;;;;;12.77;100.00;100992.84;4949108;28;20047;-78
2021/08/11 02:31:44;;;;;;;6.03;4.20;;;;;;;12.77;100.00;100992.84;4973462;28;20464;-81
2021/08/11 02:34:26;;;;;;;5.90;3.90;;;;;;;12.81;100.00;100996.31;4957568;28;20055;-79
2021/08/11 02:36:57;;;;;;;6.28;3.85;;;;;;;12.73;100.00;100996.50;4961217;28;20515;-79
2021/08/11 02:39:30;;;;;;;6.20;4.45;;;;;;;12.72;100.00;100997.41;4966660;28;20102;-80
2021/08/11 02:41:59;;;;;;;5.45;4.10;;;;;;;12.69;100.00;100997.44;4930035;28;20042;-80
2021/08/11 02:44:53;;;;;;;5.75;4.60;;;;;;;12.72;100.00;100997.41;4953693;28;20043;-80
2021/08/11 02:47:22;;;;;;;6.55;4.30;;;;;;;12.65;100.00;100993.16;4954205;28;20119;-81
2021/08/11 02:49:50;;;;;;;6.47;4.05;;;;;;;12.61;100.00;100996.75;4969483;28;20047;-81
2021/08/11 02:52:17;;;;;;;5.32;4.03;;;;;;;12.56;100.00;100993.38;4939878;28;20038;-82
2021/08/11 02:54:44;;;;;;;5.53;3.80;;;;;;;12.55;100.00;100991.63;4987939;28;20046;-81
2021/08/11 02:57:11;;;;;;;5.95;4.45;;;;;;;12.54;100.00;100996.06;4972427;28;20047;-81
2021/08/11 02:59:38;;;;;;;4.50;3.60;;;;;;;12.50;100.00;101001.44;4970718;28;20061;-82
2021/08/11 03:02:05;;;;;;;4.63;3.75;;;;;;;12.43;100.00;100995.41;4954569;28;20039;-82
2021/08/11 03:04:32;;;;;;;4.70;3.67;;;;;;;12.40;100.00;101003.44;4972161;28;20476;-79
2021/08/11 03:06:59;;;;;;;5.40;4.20;;;;;;;12.42;100.00;101006.91;4947895;28;20054;-81
2021/08/11 03:09:26;;;;;;;5.80;4.32;;;;;;;12.43;100.00;101013.09;4945311;28;20043;-81
2021/08/11 03:11:53;;;;;;;5.28;4.28;;;;;;;12.43;100.00;101006.00;4988323;28;20039;-80
2021/08/11 03:14:20;;;;;;;5.93;4.30;;;;;;;12.38;100.00;101003.47;4955533;28;20050;-81
2021/08/11 03:16:47;;;;;;;7.43;4.68;;;;;;;12.28;100.00;100998.44;4973390;28;20094;-80
2021/08/11 03:19:13;;;;;;;6.78;4.22;;;;;;;12.26;100.00;101003.72;4940609;28;20106;-82
2021/08/11 03:21:40;;;;;;;4.68;3.78;;;;;;;12.28;100.00;100998.44;4941096;28;20043;-78
2021/08/11 03:24:07;;;;;;;6.97;4.35;;;;;;;12.29;100.00;100993.09;4936252;28;20118;-79
2021/08/11 03:26:33;;;;;;;7.13;4.30;;;;;;;12.29;100.00;101006.34;4934436;29;20461;-81
2021/08/11 03:29:01;;;;;;;5.20;3.78;;;;;;;12.22;100.00;100998.56;4948456;28;20039;-79
2021/08/11 03:31:28;;;;;;;6.82;4.25;;;;;;;12.21;100.00;100995.03;4958358;28;20050;-79
2021/08/11 03:33:55;;;;;;;6.82;4.00;;;;;;;12.19;100.00;100996.84;4957581;28;20650;-79
2021/08/11 03:36:22;;;;;;;6.10;4.30;;;;;;;12.16;100.00;100999.53;4952436;28;20047;-79
2021/08/11 03:38:49;;;;;;;6.35;4.50;;;;;;;12.14;100.00;101003.16;4924366;28;20054;-80
2021/08/11 03:41:16;;;;;;;4.70;4.13;;;;;;;12.13;100.00;101004.06;4951409;28;20081;-80
2021/08/11 03:43:42;;;;;;;4.93;4.10;;;;;;;12.07;100.00;101005.91;4932805;28;20664;-79
2021/08/11 03:46:09;;;;;;;5.13;4.20;;;;;;;12.02;100.00;101007.81;4937932;28;20035;-82
2021/08/11 03:48:36;;;;;;;7.03;4.03;;;;;;;12.02;100.00;101015.75;4947048;28;20044;-81
2021/08/11 03:51:03;;;;;;;5.72;4.25;;;;;;;11.99;100.00;101015.78;4935171;28;20500;-79
2021/08/11 03:53:30;;;;;;;5.78;4.35;;;;;;;12.01;100.00;101013.97;4988405;28;20049;-81
2021/08/11 03:55:56;;;;;;;6.03;4.15;;;;;;;12.02;100.00;101017.50;4935609;29;20039;-82
2021/08/11 03:58:23;;;;;;;6.40;4.70;;;;;;;12.04;100.00;101018.34;4969669;28;20552;-79
2021/08/11 04:00:50;;;;;;;5.78;4.40;;;;;;;12.07;100.00;101018.28;4949977;28;20043;-81
2021/08/11 04:03:16;;;;;;;8.15;4.82;;;;;;;12.14;100.00;101022.56;4961532;28;20385;-82
2021/08/11 04:05:43;;;;;;;6.90;5.38;;;;;;;12.21;100.00;101024.16;4968963;28;20069;-80
2021/08/11 04:08:11;;;;;;;6.82;4.88;;;;;;;12.30;100.00;101021.31;4951761;28;20047;-82
2021/08/11 04:10:38;;;;;;;6.85;4.60;;;;;;;12.28;100.00;101027.56;4940708;28;20102;-80
2021/08/11 04:13:04;;;;;;;6.75;5.70;;;;;;;12.30;100.00;101028.41;4968529;28;20098;-81
2021/08/11 04:15:31;;;;;;;9.40;5.57;;;;;;;12.39;100.00;101030.84;4939264;28;20053;-81
2021/08/11 04:17:58;;;;;;;8.48;5.03;;;;;;;12.39;100.00;101028.19;4955497;28;20039;-80
2021/08/11 04:20:25;;;;;;;6.78;5.38;;;;;;;12.44;100.00;101033.38;4939791;28;20047;-78
2021/08/11 04:22:52;;;;;;;9.32;5.55;;;;;;;12.50;100.00;101036.78;4941760;28;20050;-82
2021/08/11 04:25:22;;;;;;;9.70;6.32;;;;;;;12.55;100.00;101034.03;4989553;28;20050;-80
2021/08/11 04:27:50;;;;;;;8.77;6.20;;;;;;;12.60;100.00;101037.44;4951479;28;20116;-79
2021/08/11 04:30:16;;;;;;;7.53;5.63;;;;;;;12.64;100.00;101037.34;4956975;28;20053;-77
2021/08/11 04:32:43;;;;;;;8.48;6.30;;;;;;;12.70;100.00;101038.13;4956655;28;20571;-82
2021/08/11 04:35:10;;;;;;;9.15;6.72;;;;;;;12.71;100.00;101039.84;4975940;28;20046;-82
2021/08/11 04:37:38;;;;;;;9.88;7.45;;;;;;;12.79;100.00;101046.72;4990771;28;20039;-80
2021/08/11 04:40:06;;;;;;;13.05;8.13;;;;;;;12.83;100.00;101042.22;4937533;28;20054;-80
2021/08/11 04:42:33;;;;;;;9.00;6.60;;;;;;;12.84;100.00;101052.78;4948162;28;20035;-77
2021/08/11 04:45:03;;;;;;;12.18;8.13;;;;;;;12.90;100.00;101041.16;4960540;28;20595;-80
2021/08/11 04:47:29;;;;;;;10.68;7.32;;;;;;;12.95;100.00;101044.59;4961286;28;20423;-81
2021/08/11 04:49:57;;;;;;;11.18;7.63;;;;;;;12.98;100.00;101048.94;4951860;28;20054;-78
2021/08/11 04:52:27;;;;;;;14.20;8.32;;;;;;;13.04;100.00;101054.09;4947901;28;20035;-79
2021/08/11 04:54:54;;;;;;;9.85;7.22;;;;;;;13.05;100.00;101062.00;4934563;28;20055;-79
2021/08/11 04:57:20;;;;;;;10.88;8.55;;;;;;;13.06;100.00;101060.22;4953038;28;20057;-79
2021/08/11 04:59:47;;;;;;;10.30;8.38;;;;;;;13.10;100.00;101060.09;4948421;28;20075;-80
2021/08/11 05:02:14;;;;;;;9.93;7.47;;;;;;;13.13;100.00;101067.13;4954609;28;20039;-79
2021/08/11 05:04:40;;;;;;;11.98;8.05;;;;;;;13.15;100.00;101068.81;4952360;28;20043;-79
2021/08/11 05:07:08;;;;;;;10.40;7.68;;;;;;;13.19;100.00;101069.63;4971251;28;20042;-79
2021/08/11 05:09:35;;;;;;;12.48;8.35;;;;;;;13.19;100.00;101065.22;4937151;28;20416;-79
2021/08/11 05:12:02;;;;;;;11.15;7.80;;;;;;;13.20;100.00;101074.94;4956123;28;20106;-79
2021/08/11 05:14:29;;;;;;;11.32;8.30;;;;;;;13.23;100.00;101079.28;4969969;28;20030;-79
2021/08/11 05:16:56;;;;;;;10.20;7.93;;;;;;;13.31;100.00;101077.31;4940443;28;20683;-80
2021/08/11 05:19:22;;;;;;;12.65;9.52;;;;;;;13.26;100.00;101081.00;4958301;28;20050;-80
2021/08/11 05:21:50;;;;;;;11.20;8.30;;;;;;;13.33;100.00;101093.19;4955646;28;20051;-80
2021/08/11 05:24:17;;;;;;;13.20;9.70;;;;;;;13.33;100.00;101090.53;4955634;28;20410;-79
2021/08/11 05:26:45;;;;;;;12.15;8.88;;;;;;;13.39;100.00;101096.56;4954960;28;20050;-79
2021/08/11 05:29:14;;;;;;;12.05;9.20;;;;;;;13.44;100.00;101107.94;4970337;28;20047;-79
2021/08/11 05:31:40;;;;;;;12.40;8.63;;;;;;;13.40;100.00;101100.97;4986362;28;20571;-79
2021/08/11 05:34:07;;;;;;;14.38;9.63;;;;;;;13.50;100.00;101099.81;4958648;28;20043;-79
2021/08/11 05:36:34;;;;;;;13.50;8.55;;;;;;;13.52;100.00;101108.59;4970256;28;20094;-79
2021/08/11 05:39:01;;;;;;;13.63;9.38;;;;;;;13.54;100.00;101105.94;4939498;28;20042;-78
2021/08/11 05:41:27;;;;;;;14.73;9.73;;;;;;;13.57;100.00;101110.28;4956283;28;20042;-79
2021/08/11 05:43:54;;;;;;;13.60;8.38;;;;;;;13.67;100.00;101103.81;4939557;28;20481;-79
2021/08/11 05:46:21;;;;;;;14.38;8.85;;;;;;;13.66;100.00;101116.22;4972814;28;20452;-79
2021/08/11 05:48:47;;;;;;;20.70;10.18;;;;;;;13.46;100.00;101110.56;4940490;28;20051;-80
2021/08/11 05:51:14;;;;;;;14.23;9.70;;;;;;;13.47;100.00;101113.19;4985032;28;20039;-79
2021/08/11 05:53:41;;;;;;;14.50;9.30;;;;;;;13.51;100.00;101111.31;4953177;28;20047;-79
2021/08/11 05:56:08;;;;;;;13.65;9.43;;;;;;;13.54;100.00;101121.88;4952522;28;20043;-78
2021/08/11 05:58:34;;;;;;;14.45;10.13;;;;;;;13.55;100.00;101123.59;4945266;28;20043;-79
2021/08/11 06:01:01;;;;;;;14.20;9.25;;;;;;;13.59;100.00;101121.72;4933220;28;20043;-80
2021/08/11 06:03:28;;;;;;;14.80;10.73;;;;;;;13.76;100.00;101127.47;4955636;28;20457;-79
2021/08/11 06:05:55;;;;;;;17.15;11.15;;;;;;;13.80;100.00;101137.13;4979877;28;20066;-79
2021/08/11 06:08:22;;;;;;;18.15;9.75;;;;;;;13.77;100.00;101134.53;4982487;28;20041;-79
2021/08/11 06:10:48;;;;;;;18.10;11.02;;;;;;;13.93;100.00;101141.19;4933405;28;20042;-78
2021/08/11 06:13:15;;;;;;;13.75;8.57;;;;;;;13.91;100.00;101145.66;4948585;28;21211;-79
2021/08/11 06:15:42;;;;;;;14.68;10.40;;;;;;;13.97;100.00;101142.00;4972006;28;20047;-79
2021/08/11 06:18:08;;;;;;;12.70;8.07;;;;;;;13.96;100.00;101148.22;4940801;28;20594;-79
2021/08/11 06:20:35;;;;;;;14.25;8.98;;;;;;;13.98;100.00;101147.25;4992838;28;20049;-79
2021/08/11 06:23:02;;;;;;;15.05;9.52;;;;;;;13.96;100.00;101145.56;4928220;28;20042;-80
2021/08/11 06:25:28;;;;;;;14.48;9.60;;;;;;;13.95;100.00;101142.00;4953824;28;20054;-79
2021/08/11 06:27:55;;;;;;;14.70;10.02;;;;;;;14.02;100.00;101148.91;4939434;28;20043;-79
2021/08/11 06:30:22;;;;;;;14.10;9.45;;;;;;;14.01;100.00;101146.28;4964725;28;20053;-80
2021/08/11 06:32:48;;;;;;;15.90;10.20;;;;;;;14.01;100.00;101138.31;4953997;28;20046;-79
2021/08/11 06:35:20;;;;;;;13.43;9.57;;;;;;;14.03;100.00;101149.78;4952621;28;20429;-80
2021/08/11 06:37:49;;;;;;;15.07;9.90;;;;;;;14.10;100.00;101148.69;4939267;28;20046;-79
2021/08/11 06:40:17;;;;;;;14.02;9.15;;;;;;;14.09;100.00;101149.63;4953384;28;20099;-79
2021/08/11 06:42:44;;;;;;;14.93;9.60;;;;;;;14.14;100.00;101157.47;4970648;28;20531;-79
2021/08/11 06:45:11;;;;;;;16.73;11.05;;;;;;;14.17;100.00;101146.75;4958686;28;20098;-78
2021/08/11 06:47:38;;;;;;;15.43;9.90;;;;;;;14.23;100.00;101154.56;4952684;28;20046;-78
2021/08/11 06:50:07;;;;;;;18.38;11.73;;;;;;;14.29;100.00;101146.41;4938134;28;20039;-79
2021/08/11 06:52:35;;;;;;;15.95;10.40;;;;;;;14.37;100.00;101150.59;4938572;28;20043;-78
2021/08/11 06:55:07;;;;;;;15.38;10.27;;;;;;;14.36;100.00;101154.16;4937752;28;20507;-79
2021/08/11 06:57:34;;;;;;;16.45;10.35;;;;;;;14.43;100.00;101149.56;4938194;28;20695;-79
2021/08/11 07:00:01;;;;;;;16.50;10.75;;;;;;;14.48;100.00;101149.47;5070771;23;20041;-84
2021/08/11 07:02:28;;;;;;;17.20;10.20;;;;;;;14.49;100.00;101154.72;5006196;28;20521;-84
2021/08/11 07:04:54;;;;;;;19.70;12.23;;;;;;;14.51;100.00;101163.53;4986762;28;20042;-84
2021/08/11 07:07:21;;;;;;;17.25;10.98;;;;;;;14.54;100.00;101166.09;4998098;28;20049;-84
2021/08/11 07:09:49;;;;;;;15.82;9.90;;;;;;;14.54;100.00;101158.09;5001768;28;20132;-83
2021/08/11 07:12:16;;;;;;;16.75;11.25;;;;;;;14.61;100.00;101162.34;5018044;28;20037;-82
2021/08/11 07:14:42;;;;;;;19.90;12.75;;;;;;;14.71;100.00;101168.25;5012749;28;20648;-82
2021/08/11 07:17:09;;;;;;;25.35;19.77;;;;;;;14.81;100.00;101164.44;5023368;28;20115;-83
2021/08/11 07:19:37;;;;;;;30.92;27.63;;;;;;;14.81;100.00;101161.78;5011236;28;20624;-83
2021/08/11 07:22:04;;;;;;;29.08;25.88;;;;;;;14.85;100.00;101162.53;5013643;28;20135;-82
2021/08/11 07:24:31;;;;;;;16.23;11.32;;;;;;;14.89;100.00;101167.75;4980857;28;20046;-83
2021/08/11 07:26:57;;;;;;;14.07;10.20;;;;;;;14.93;100.00;101169.38;4982335;28;20053;-85
2021/08/11 07:29:24;;;;;;;16.25;10.80;;;;;;;15.07;100.00;101173.41;4997841;28;20509;-83
2021/08/11 07:31:51;;;;;;;15.85;10.07;;;;;;;15.13;100.00;101176.75;4992076;28;20129;-83
2021/08/11 07:34:18;;;;;;;20.05;16.65;;;;;;;15.17;100.00;101182.84;4995580;28;20042;-85
2021/08/11 07:36:45;;;;;;;17.60;11.23;;;;;;;15.14;100.00;101193.59;5000595;28;20076;-86
2021/08/11 07:39:12;;;;;;;16.27;11.88;;;;;;;15.13;100.00;101190.06;5005711;28;20051;-86
2021/08/11 07:41:39;;;;;;;15.32;10.07;;;;;;;15.13;100.00;101187.41;5000320;28;20049;-84
2021/08/11 07:44:06;;;;;;;15.57;10.40;;;;;;;15.29;100.00;101186.91;5008981;28;20043;-83
2021/08/11 07:46:33;;;;;;;17.25;10.20;;;;;;;15.45;100.00;101188.16;5020057;28;20513;-83
2021/08/11 07:49:00;;;;;;;14.10;9.45;;;;;;;15.56;100.00;101182.50;5017458;28;20048;-85
2021/08/11 07:51:27;;;;;;;15.48;10.88;;;;;;;15.71;100.00;101198.00;5003412;28;20052;-85
2021/08/11 07:53:54;;;;;;;15.27;9.60;;;;;;;15.75;100.00;101189.88;5021863;28;20045;-86
2021/08/11 07:56:22;;;;;;;14.25;9.60;;;;;;;15.79;100.00;101192.41;5001453;28;20494;-84
2021/08/11 07:58:49;;;;;;;14.02;10.48;;;;;;;15.89;100.00;101197.41;5012067;28;20080;-86
2021/08/11 08:01:15;;;;;;;14.02;10.15;;;;;;;16.00;100.00;101202.34;5000982;28;20048;-84
2021/08/11 08:03:43;;;;;;;13.05;8.90;;;;;;;16.15;100.00;101207.16;5018647;28;20067;-84
2021/08/11 08:06:10;;;;;;;14.25;9.82;;;;;;;16.37;100.00;101203.72;5035958;28;20041;-84
2021/08/11 08:08:36;;;;;;;14.52;9.45;;;;;;;16.46;100.00;101201.59;5025691;28;20072;-87
2021/08/11 08:11:03;;;;;;;13.20;9.82;;;;;;;16.42;100.00;101212.44;5001259;28;20041;-85
2021/08/11 08:13:30;;;;;;;13.35;8.85;;;;;;;16.51;100.00;101204.09;5000854;28;20048;-85
2021/08/11 08:15:59;;;;;;;11.38;8.27;;;;;;;16.52;100.00;101206.72;4997304;28;20048;-86
2021/08/11 08:18:26;;;;;;;11.80;9.02;;;;;;;16.70;100.00;101212.34;5023611;28;20049;-84
2021/08/11 08:20:55;;;;;;;10.95;8.52;;;;;;;16.73;99.64;101210.44;5009161;28;20444;-87
2021/08/11 08:23:22;;;;;;;11.35;8.15;;;;;;;16.83;99.61;101213.63;5032899;28;20072;-84
2021/08/11 08:25:49;;;;;;;12.32;8.23;;;;;;;16.87;95.39;101218.78;5003428;28;20044;-87
2021/08/11 08:28:16;;;;;;;10.07;6.97;;;;;;;16.76;98.69;101222.78;5016296;28;20045;-84
2021/08/11 08:30:47;;;;;;;12.45;7.82;;;;;;;16.80;100.00;101219.94;5000396;28;20051;-86
2021/08/11 08:33:14;;;;;;;11.02;8.48;;;;;;;16.81;100.00;101213.66;5017754;28;20041;-83
2021/08/11 08:35:40;;;;;;;11.55;9.10;;;;;;;17.02;95.52;101217.34;5016717;28;20055;-82
2021/08/11 08:38:07;;;;;;;9.95;7.75;;;;;;;17.14;96.83;101221.31;5007441;28;20041;-85
2021/08/11 08:40:36;;;;;;;11.70;8.43;;;;;;;17.33;96.13;101219.69;5020261;28;20040;-83
2021/08/11 08:43:05;;;;;;;11.25;8.27;;;;;;;17.58;94.37;101222.25;5006859;28;20048;-84
2021/08/11 08:45:32;;;;;;;10.50;7.75;;;;;;;17.67;92.33;101219.19;5004899;28;20569;-85
2021/08/11 08:48:03;;;;;;;15.75;9.32;;;;;;;17.67;91.85;101219.19;5021457;28;20044;-84
2021/08/11 08:50:30;;;;;;;10.48;8.18;;;;;;;17.64;91.48;101223.78;5002469;28;20040;-84
2021/08/11 08:52:58;;;;;;;13.60;9.25;;;;;;;17.68;90.99;101225.41;5002763;28;20041;-84
2021/08/11 08:55:26;;;;;;;10.05;7.65;;;;;;;17.57;90.37;101232.97;5019895;28;20079;-86
2021/08/11 08:57:53;;;;;;;10.77;7.95;;;;;;;17.87;90.96;101221.06;5001315;28;20406;-83
2021/08/11 09:00:20;;;;;;;11.57;7.70;;;;;;;18.12;89.99;101225.38;5018310;28;20097;-84
2021/08/11 09:02:46;;;;;;;7.55;5.85;;;;;;;18.16;90.04;101225.22;5013514;28;20041;-84
2021/08/11 09:05:15;;;;;;;13.77;8.63;;;;;;;18.11;84.74;101224.53;5005097;28;20486;-85
2021/08/11 09:07:46;;;;;;;9.40;6.72;;;;;;;18.02;88.94;101226.72;5020063;28;20045;-85
2021/08/11 09:10:23;;;;;;;10.00;7.38;;;;;;;18.02;88.68;101234.75;5003171;28;20045;-85
2021/08/11 09:13:07;;;;;;;12.48;8.27;;;;;;;17.81;88.17;101231.16;5019747;28;20037;-84
2021/08/11 09:15:44;;;;;;;;;;;;;;;18.36;91.63;101228.81;5010567;28;20037;-85
2021/08/11 09:18:12;;;;;;;9.60;6.47;;;;;;;18.75;82.39;101226.19;5019267;28;19921;-86
2021/08/11 09:20:39;;;;;;;10.20;7.07;;;;;;;18.57;79.48;101228.72;5015010;28;20378;-85
2021/08/11 09:23:07;;;;;;;9.20;6.70;;;;;;;18.57;84.66;101235.88;4995228;28;20041;-84
2021/08/11 09:25:34;;;;;;;8.65;6.57;;;;;;;18.48;84.72;101237.16;5015613;28;20041;-84
2021/08/11 09:28:01;;;;;;;8.48;6.50;;;;;;;18.80;83.88;101229.53;5017807;28;20045;-85
2021/08/11 09:30:31;;;;;;;11.48;7.55;;;;;;;18.78;82.06;101224.25;5011831;28;20110;-84
2021/08/11 09:33:03;;;;;;;9.73;7.10;;;;;;;18.71;84.85;101230.81;5019758;28;20469;-83
2021/08/11 09:35:35;;;;;;;11.73;8.00;;;;;;;18.42;80.99;101237.44;5017778;28;20040;-83
2021/08/11 09:38:08;;;;;;;9.70;6.97;;;;;;;18.51;83.35;101233.50;5032789;28;20135;-84
2021/08/11 09:40:36;;;;;;;10.88;8.18;;;;;;;19.07;84.77;101232.75;5000041;28;20057;-85
2021/08/11 09:43:05;;;;;;;7.63;6.13;;;;;;;19.38;78.54;101229.50;5014832;28;20761;-85
2021/08/11 09:45:42;;;;;;;8.18;6.05;;;;;;;19.50;78.60;101234.25;5013568;28;20052;-85
2021/08/11 09:48:09;;;;;;;8.15;6.32;;;;;;;19.43;75.78;101237.31;5011763;28;20042;-87
2021/08/11 09:50:37;;;;;;;7.22;6.13;;;;;;;19.38;78.63;101232.16;4999957;28;20045;-84
2021/08/11 09:53:04;;;;;;;7.43;6.30;;;;;;;19.10;76.98;101246.88;5033547;28;20041;-84
2021/08/11 09:55:53;;;;;;;6.32;5.55;;;;;;;18.96;77.50;101243.97;4997956;28;20042;-83
2021/08/11 09:58:20;;;;;;;8.48;6.90;;;;;;;19.28;74.96;101244.28;5012431;28;20061;-83
2021/08/11 10:00:47;;;;;;;6.90;5.75;;;;;;;19.46;69.61;101239.84;5023103;28;20041;-83
2021/08/11 10:03:13;;;;;;;6.80;4.90;;;;;;;19.81;72.01;101240.81;5002303;28;20099;-86
2021/08/11 10:05:40;;;;;;;7.05;5.70;;;;;;;20.12;68.29;101234.78;5008501;28;20038;-85
2021/08/11 10:08:07;;;;;;;6.75;5.78;;;;;;;20.60;69.04;101239.47;5017346;28;20048;-83
2021/08/11 10:11:03;;;;;;;6.95;5.88;;;;;;;21.02;66.26;101243.44;5001677;28;20037;-84
2021/08/11 10:13:32;;;;;;;8.18;5.95;;;;;;;21.35;64.94;101240.75;4999883;28;20048;-86
2021/08/11 10:15:58;;;;;;;6.15;4.90;;;;;;;21.46;65.81;101240.16;5033910;28;20041;-85
2021/08/11 10:18:27;;;;;;;7.80;5.38;;;;;;;21.51;65.66;101233.56;5000402;28;20061;-83
2021/08/11 10:20:59;;;;;;;6.07;4.80;;;;;;;21.75;63.64;101244.72;5000724;28;20041;-83
2021/08/11 10:23:26;;;;;;;8.10;5.57;;;;;;;21.00;61.78;101248.91;5005928;28;20050;-85
2021/08/11 10:25:53;;;;;;;6.18;5.25;;;;;;;20.69;63.49;101241.66;4993787;28;20033;-82
2021/08/11 10:28:22;;;;;;;7.50;4.80;;;;;;;20.38;65.62;101249.56;4995429;28;20479;-83
2021/08/11 10:30:50;;;;;;;6.75;5.10;;;;;;;20.16;67.34;101253.31;4999412;28;20040;-84
2021/08/11 10:33:18;;;;;;;6.32;4.72;;;;;;;20.35;64.85;101247.91;5017435;28;20049;-83
2021/08/11 10:35:46;;;;;;;5.35;4.75;;;;;;;20.77;68.14;101244.81;4985776;28;20494;-85
2021/08/11 10:38:14;;;;;;;6.55;5.07;;;;;;;21.12;64.28;101239.34;5018182;28;20041;-86
2021/08/11 10:40:42;;;;;;;6.68;4.93;;;;;;;21.59;64.29;101243.88;5024953;28;20045;-84
2021/08/11 10:43:12;;;;;;;5.85;5.10;;;;;;;21.76;62.71;101235.69;5009450;28;20132;-84
2021/08/11 10:45:39;;;;;;;6.18;4.85;;;;;;;21.32;61.37;101249.00;4990816;28;20277;-85
2021/08/11 10:48:17;;;;;;;5.13;4.63;;;;;;;21.24;62.19;101251.22;5003177;28;20068;-85
2021/08/11 10:50:47;;;;;;;6.00;4.95;;;;;;;21.39;60.98;101246.84;5027307;28;20536;-85
2021/08/11 10:53:13;;;;;;;5.93;5.18;;;;;;;21.36;60.33;101242.50;5016603;28;20045;-85
2021/08/11 10:55:43;;;;;;;8.23;5.22;;;;;;;21.56;58.65;101250.31;5001998;28;20394;-84
2021/08/11 10:58:10;;;;;;;5.47;4.57;;;;;;;21.97;60.24;101248.88;5019227;28;20132;-86
2021/08/11 11:00:40;;;;;;;5.43;4.35;;;;;;;22.30;57.58;101246.03;4995967;28;20652;-83
2021/08/11 11:03:08;;;;;;;5.75;4.30;;;;;;;22.10;57.19;101245.38;5003350;28;20414;-85
2021/08/11 11:05:35;;;;;;;5.55;4.57;;;;;;;21.71;55.67;101253.94;5000609;28;20057;-84
2021/08/11 11:08:08;;;;;;;4.70;3.95;;;;;;;21.93;55.56;101249.03;5018338;28;20052;-86
2021/08/11 11:10:36;;;;;;;;;;;;;;;22.12;56.00;101243.50;5030402;28;20045;-82
2021/08/11 11:13:33;;;;;;;4.65;4.20;;;;;;;22.40;55.20;101248.06;5001716;28;20019;-85
2021/08/11 11:16:03;;;;;;;4.38;3.97;;;;;;;22.41;53.00;101251.63;5017817;28;20123;-85
2021/08/11 11:18:30;;;;;;;7.05;3.85;;;;;;;22.09;55.36;101251.72;5018096;28;20497;-86
2021/08/11 11:20:57;;;;;;;5.32;4.10;;;;;;;21.96;55.42;101247.16;4999910;28;20037;-85